sensor_id;sensor_type;location;lat;lon;timestamp;temperature;humidity
11848;DHT22;5983;49.966;8.052;2022-10-16T00:01:29;14.40;99.90
11848;DHT22;5983;49.966;8.052;2022-10-16T00:03:58;14.30;99.90
11848;DHT22;5983;49.966;8.052;2022-10-16T00:06:27;14.30;99.90
11848;DHT22;5983;49.966;8.052;2022-10-16T00:08:55;14.30;99.90
11848;DHT22;5983;49.966;8.052;2022-10-16T00:11:24;14.30;99.90
11848;DHT22;5983;49.966;8.052;2022-10-16T00:13:55;14.30;99.90
11848;DHT22;5983;49.966;8.052;2022-10-16T00:16:27;14.20;99.90
11848;DHT22;5983;49.966;8.052;2022-10-16T00:18:55;14.20;99.90
11848;DHT22;5983;49.966;8.052;2022-10-16T00:21:24;14.20;99.90
11848;DHT22;5983;49.966;8.052;2022-10-16T00:23:54;14.20;99.90
11848;DHT22;5983;49.966;8.052;2022-10-16T00:26:22;14.20;99.90
11848;DHT22;5983;49.966;8.052;2022-10-16T00:28:50;14.20;99.90
11848;DHT22;5983;49.966;8.052;2022-10-16T00:31:19;14.20;99.90
11848;DHT22;5983;49.966;8.052;2022-10-16T00:33:49;14.20;99.90
11848;DHT22;5983;49.966;8.052;2022-10-16T00:36:18;14.20;99.90
11848;DHT22;5983;49.966;8.052;2022-10-16T00:38:46;14.20;99.90
11848;DHT22;5983;49.966;8.052;2022-10-16T00:41:18;14.20;99.90
11848;DHT22;5983;49.966;8.052;2022-10-16T00:43:49;14.20;99.90
11848;DHT22;5983;49.966;8.052;2022-10-16T00:46:19;14.20;99.90
11848;DHT22;5983;49.966;8.052;2022-10-16T00:48:53;14.20;99.90
11848;DHT22;5983;49.966;8.052;2022-10-16T00:51:28;14.20;99.90
11848;DHT22;5983;49.966;8.052;2022-10-16T00:53:58;14.20;99.90
11848;DHT22;5983;49.966;8.052;2022-10-16T00:56:26;14.20;99.90
11848;DHT22;5983;49.966;8.052;2022-10-16T00:58:53;14.20;99.90
11848;DHT22;5983;49.966;8.052;2022-10-16T01:01:20;14.20;99.90
11848;DHT22;5983;49.966;8.052;2022-10-16T01:03:48;14.20;99.90
11848;DHT22;5983;49.966;8.052;2022-10-16T01:06:34;14.20;99.90
11848;DHT22;5983;49.966;8.052;2022-10-16T01:09:14;14.20;99.90
11848;DHT22;5983;49.966;8.052;2022-10-16T01:11:55;14.30;99.90
11848;DHT22;5983;49.966;8.052;2022-10-16T01:14:36;14.30;99.90
11848;DHT22;5983;49.966;8.052;2022-10-16T01:17:13;14.30;99.90
11848;DHT22;5983;49.966;8.052;2022-10-16T01:20:07;14.20;99.90
11848;DHT22;5983;49.966;8.052;2022-10-16T01:22:46;14.20;99.90
11848;DHT22;5983;49.966;8.052;2022-10-16T01:25:30;14.20;99.90
11848;DHT22;5983;49.966;8.052;2022-10-16T01:28:08;14.10;99.90
11848;DHT22;5983;49.966;8.052;2022-10-16T01:30:39;14.10;99.90
11848;DHT22;5983;49.966;8.052;2022-10-16T01:33:12;14.10;99.90
11848;DHT22;5983;49.966;8.052;2022-10-16T01:35:45;14.10;99.90
11848;DHT22;5983;49.966;8.052;2022-10-16T01:38:22;14.20;99.90
11848;DHT22;5983;49.966;8.052;2022-10-16T01:41:02;14.20;99.90
11848;DHT22;5983;49.966;8.052;2022-10-16T01:43:39;14.20;99.90
11848;DHT22;5983;49.966;8.052;2022-10-16T01:46:10;14.30;99.90
11848;DHT22;5983;49.966;8.052;2022-10-16T01:48:41;14.30;99.90
11848;DHT22;5983;49.966;8.052;2022-10-16T01:51:10;14.20;99.90
11848;DHT22;5983;49.966;8.052;2022-10-16T01:53:40;14.20;99.90
11848;DHT22;5983;49.966;8.052;2022-10-16T01:56:11;14.20;99.90
11848;DHT22;5983;49.966;8.052;2022-10-16T01:58:45;14.30;99.90
11848;DHT22;5983;49.966;8.052;2022-10-16T02:01:18;14.30;99.90
11848;DHT22;5983;49.966;8.052;2022-10-16T02:03:46;14.30;99.90
11848;DHT22;5983;49.966;8.052;2022-10-16T02:06:19;14.30;99.90
11848;DHT22;5983;49.966;8.052;2022-10-16T02:08:47;14.30;99.90
11848;DHT22;5983;49.966;8.052;2022-10-16T02:11:14;14.30;99.90
11848;DHT22;5983;49.966;8.052;2022-10-16T02:13:46;14.30;99.90
11848;DHT22;5983;49.966;8.052;2022-10-16T02:16:15;14.30;99.90
11848;DHT22;5983;49.966;8.052;2022-10-16T02:18:43;14.30;99.90
11848;DHT22;5983;49.966;8.052;2022-10-16T02:21:15;14.30;99.90
11848;DHT22;5983;49.966;8.052;2022-10-16T02:23:51;14.30;99.90
11848;DHT22;5983;49.966;8.052;2022-10-16T02:26:28;14.30;99.90
11848;DHT22;5983;49.966;8.052;2022-10-16T02:29:04;14.30;99.90
11848;DHT22;5983;49.966;8.052;2022-10-16T02:31:40;14.30;99.90
11848;DHT22;5983;49.966;8.052;2022-10-16T02:34:10;14.30;99.90
11848;DHT22;5983;49.966;8.052;2022-10-16T02:36:40;14.40;99.90
11848;DHT22;5983;49.966;8.052;2022-10-16T02:39:10;14.40;99.90
11848;DHT22;5983;49.966;8.052;2022-10-16T02:41:38;14.40;99.90
11848;DHT22;5983;49.966;8.052;2022-10-16T02:44:06;14.40;99.90
11848;DHT22;5983;49.966;8.052;2022-10-16T02:46:33;14.40;99.90
11848;DHT22;5983;49.966;8.052;2022-10-16T02:49:00;14.40;99.90
11848;DHT22;5983;49.966;8.052;2022-10-16T02:51:27;14.40;99.90
11848;DHT22;5983;49.966;8.052;2022-10-16T02:53:54;14.40;99.90
11848;DHT22;5983;49.966;8.052;2022-10-16T02:56:21;14.40;99.90
11848;DHT22;5983;49.966;8.052;2022-10-16T02:58:48;14.40;99.90
11848;DHT22;5983;49.966;8.052;2022-10-16T03:01:17;14.40;99.90
11848;DHT22;5983;49.966;8.052;2022-10-16T03:03:43;14.40;99.90
11848;DHT22;5983;49.966;8.052;2022-10-16T03:06:11;14.40;99.90
11848;DHT22;5983;49.966;8.052;2022-10-16T03:08:38;14.40;99.90
11848;DHT22;5983;49.966;8.052;2022-10-16T03:11:05;14.40;99.90
11848;DHT22;5983;49.966;8.052;2022-10-16T03:13:32;14.40;99.90
11848;DHT22;5983;49.966;8.052;2022-10-16T03:15:59;14.40;99.90
11848;DHT22;5983;49.966;8.052;2022-10-16T03:18:27;14.40;99.90
11848;DHT22;5983;49.966;8.052;2022-10-16T03:20:54;14.40;99.90
11848;DHT22;5983;49.966;8.052;2022-10-16T03:23:20;14.40;99.90
11848;DHT22;5983;49.966;8.052;2022-10-16T03:25:47;14.40;99.90
11848;DHT22;5983;49.966;8.052;2022-10-16T03:28:14;14.40;99.90
11848;DHT22;5983;49.966;8.052;2022-10-16T03:30:42;14.40;99.90
11848;DHT22;5983;49.966;8.052;2022-10-16T03:33:09;14.40;99.90
11848;DHT22;5983;49.966;8.052;2022-10-16T03:35:38;14.40;99.90
11848;DHT22;5983;49.966;8.052;2022-10-16T03:38:04;14.40;99.90
11848;DHT22;5983;49.966;8.052;2022-10-16T03:40:31;14.40;99.90
11848;DHT22;5983;49.966;8.052;2022-10-16T03:42:59;14.40;99.90
11848;DHT22;5983;49.966;8.052;2022-10-16T03:45:26;14.40;99.90
11848;DHT22;5983;49.966;8.052;2022-10-16T03:47:53;14.40;99.90
11848;DHT22;5983;49.966;8.052;2022-10-16T03:50:19;14.40;99.90
11848;DHT22;5983;49.966;8.052;2022-10-16T03:52:48;14.40;99.90
11848;DHT22;5983;49.966;8.052;2022-10-16T03:55:15;14.40;99.90
11848;DHT22;5983;49.966;8.052;2022-10-16T03:57:41;14.40;99.90
11848;DHT22;5983;49.966;8.052;2022-10-16T04:00:10;14.40;99.90
11848;DHT22;5983;49.966;8.052;2022-10-16T04:02:38;14.40;99.90
11848;DHT22;5983;49.966;8.052;2022-10-16T04:05:05;14.40;99.90
11848;DHT22;5983;49.966;8.052;2022-10-16T04:07:33;14.40;99.90
11848;DHT22;5983;49.966;8.052;2022-10-16T04:10:01;14.40;99.90
11848;DHT22;5983;49.966;8.052;2022-10-16T04:12:28;14.40;99.90
11848;DHT22;5983;49.966;8.052;2022-10-16T04:14:55;14.40;99.90
11848;DHT22;5983;49.966;8.052;2022-10-16T04:17:22;14.40;99.90
11848;DHT22;5983;49.966;8.052;2022-10-16T04:19:49;14.40;99.90
11848;DHT22;5983;49.966;8.052;2022-10-16T04:22:16;14.30;99.90
11848;DHT22;5983;49.966;8.052;2022-10-16T04:24:43;14.30;99.90
11848;DHT22;5983;49.966;8.052;2022-10-16T04:27:11;14.30;99.90
11848;DHT22;5983;49.966;8.052;2022-10-16T04:29:38;14.30;99.90
11848;DHT22;5983;49.966;8.052;2022-10-16T04:32:05;14.30;99.90
11848;DHT22;5983;49.966;8.052;2022-10-16T04:34:34;14.30;99.90
11848;DHT22;5983;49.966;8.052;2022-10-16T04:37:00;14.30;99.90
11848;DHT22;5983;49.966;8.052;2022-10-16T04:39:27;14.30;99.90
11848;DHT22;5983;49.966;8.052;2022-10-16T04:41:54;14.30;99.90
11848;DHT22;5983;49.966;8.052;2022-10-16T04:44:22;14.30;99.90
11848;DHT22;5983;49.966;8.052;2022-10-16T04:46:50;14.30;99.90
11848;DHT22;5983;49.966;8.052;2022-10-16T04:49:17;14.30;99.90
11848;DHT22;5983;49.966;8.052;2022-10-16T04:51:44;14.30;99.90
11848;DHT22;5983;49.966;8.052;2022-10-16T04:54:11;14.30;99.90
11848;DHT22;5983;49.966;8.052;2022-10-16T04:56:38;14.30;99.90
11848;DHT22;5983;49.966;8.052;2022-10-16T04:59:12;14.30;99.90
11848;DHT22;5983;49.966;8.052;2022-10-16T05:01:40;14.30;99.90
11848;DHT22;5983;49.966;8.052;2022-10-16T05:04:08;14.30;99.90
11848;DHT22;5983;49.966;8.052;2022-10-16T05:06:35;14.30;99.90
11848;DHT22;5983;49.966;8.052;2022-10-16T05:09:04;14.30;99.90
11848;DHT22;5983;49.966;8.052;2022-10-16T05:11:31;14.30;99.90
11848;DHT22;5983;49.966;8.052;2022-10-16T05:13:58;14.30;99.90
11848;DHT22;5983;49.966;8.052;2022-10-16T05:16:25;14.30;99.90
11848;DHT22;5983;49.966;8.052;2022-10-16T05:18:53;14.20;99.90
11848;DHT22;5983;49.966;8.052;2022-10-16T05:21:20;14.20;99.90
11848;DHT22;5983;49.966;8.052;2022-10-16T05:23:48;14.20;99.90
11848;DHT22;5983;49.966;8.052;2022-10-16T05:26:15;14.20;99.90
11848;DHT22;5983;49.966;8.052;2022-10-16T05:28:41;14.10;99.90
11848;DHT22;5983;49.966;8.052;2022-10-16T05:31:09;14.10;99.90
11848;DHT22;5983;49.966;8.052;2022-10-16T05:33:36;14.20;99.90
11848;DHT22;5983;49.966;8.052;2022-10-16T05:36:08;14.10;99.90
11848;DHT22;5983;49.966;8.052;2022-10-16T05:38:36;14.10;99.90
11848;DHT22;5983;49.966;8.052;2022-10-16T05:41:04;14.10;99.90
11848;DHT22;5983;49.966;8.052;2022-10-16T05:43:32;14.10;99.90
11848;DHT22;5983;49.966;8.052;2022-10-16T05:46:01;14.20;99.90
11848;DHT22;5983;49.966;8.052;2022-10-16T05:48:30;14.10;99.90
11848;DHT22;5983;49.966;8.052;2022-10-16T05:50:59;14.20;99.90
11848;DHT22;5983;49.966;8.052;2022-10-16T05:53:29;14.20;99.90
11848;DHT22;5983;49.966;8.052;2022-10-16T05:55:58;14.20;99.90
11848;DHT22;5983;49.966;8.052;2022-10-16T05:58:27;14.20;99.90
11848;DHT22;5983;49.966;8.052;2022-10-16T06:00:56;14.20;99.90
11848;DHT22;5983;49.966;8.052;2022-10-16T06:03:25;14.20;99.90
11848;DHT22;5983;49.966;8.052;2022-10-16T06:05:52;14.20;99.90
11848;DHT22;5983;49.966;8.052;2022-10-16T06:08:21;14.30;99.90
11848;DHT22;5983;49.966;8.052;2022-10-16T06:11:00;14.30;99.90
11848;DHT22;5983;49.966;8.052;2022-10-16T06:13:28;14.30;99.90
11848;DHT22;5983;49.966;8.052;2022-10-16T06:15:57;14.30;99.90
11848;DHT22;5983;49.966;8.052;2022-10-16T06:18:25;14.30;99.90
11848;DHT22;5983;49.966;8.052;2022-10-16T06:20:52;14.30;99.90
11848;DHT22;5983;49.966;8.052;2022-10-16T06:23:19;14.30;99.90
11848;DHT22;5983;49.966;8.052;2022-10-16T06:25:46;14.30;99.90
11848;DHT22;5983;49.966;8.052;2022-10-16T06:28:15;14.30;99.90
11848;DHT22;5983;49.966;8.052;2022-10-16T06:30:43;14.30;99.90
11848;DHT22;5983;49.966;8.052;2022-10-16T06:33:11;14.30;99.90
11848;DHT22;5983;49.966;8.052;2022-10-16T06:35:38;14.30;99.90
11848;DHT22;5983;49.966;8.052;2022-10-16T06:38:05;14.30;99.90
11848;DHT22;5983;49.966;8.052;2022-10-16T06:40:32;14.30;99.90
11848;DHT22;5983;49.966;8.052;2022-10-16T06:42:59;14.20;99.90
11848;DHT22;5983;49.966;8.052;2022-10-16T06:45:27;14.30;99.90
11848;DHT22;5983;49.966;8.052;2022-10-16T06:47:54;14.30;99.90
11848;DHT22;5983;49.966;8.052;2022-10-16T06:50:21;14.30;99.90
11848;DHT22;5983;49.966;8.052;2022-10-16T06:52:48;14.40;99.90
11848;DHT22;5983;49.966;8.052;2022-10-16T06:55:14;14.40;99.90
11848;DHT22;5983;49.966;8.052;2022-10-16T06:57:42;14.40;99.90
11848;DHT22;5983;49.966;8.052;2022-10-16T07:00:10;14.40;99.90
11848;DHT22;5983;49.966;8.052;2022-10-16T07:02:38;14.30;99.90
11848;DHT22;5983;49.966;8.052;2022-10-16T07:05:06;14.40;99.90
11848;DHT22;5983;49.966;8.052;2022-10-16T07:07:33;14.40;99.90
11848;DHT22;5983;49.966;8.052;2022-10-16T07:10:00;14.40;99.90
11848;DHT22;5983;49.966;8.052;2022-10-16T07:12:27;14.50;99.90
11848;DHT22;5983;49.966;8.052;2022-10-16T07:14:54;14.50;99.90
11848;DHT22;5983;49.966;8.052;2022-10-16T07:17:21;14.50;99.90
11848;DHT22;5983;49.966;8.052;2022-10-16T07:19:50;14.60;99.90
11848;DHT22;5983;49.966;8.052;2022-10-16T07:22:18;14.60;99.90
11848;DHT22;5983;49.966;8.052;2022-10-16T07:24:46;14.70;99.90
11848;DHT22;5983;49.966;8.052;2022-10-16T07:27:13;14.70;99.90
11848;DHT22;5983;49.966;8.052;2022-10-16T07:29:41;14.70;99.90
11848;DHT22;5983;49.966;8.052;2022-10-16T07:32:08;14.70;99.90
11848;DHT22;5983;49.966;8.052;2022-10-16T07:34:35;14.80;99.90
11848;DHT22;5983;49.966;8.052;2022-10-16T07:37:03;14.80;99.90
11848;DHT22;5983;49.966;8.052;2022-10-16T07:39:30;14.80;99.90
11848;DHT22;5983;49.966;8.052;2022-10-16T07:41:57;14.90;99.90
11848;DHT22;5983;49.966;8.052;2022-10-16T07:44:24;14.90;99.90
11848;DHT22;5983;49.966;8.052;2022-10-16T07:46:51;15.00;99.90
11848;DHT22;5983;49.966;8.052;2022-10-16T07:49:17;15.00;99.90
11848;DHT22;5983;49.966;8.052;2022-10-16T07:51:45;15.10;99.90
11848;DHT22;5983;49.966;8.052;2022-10-16T07:54:13;15.10;99.90
11848;DHT22;5983;49.966;8.052;2022-10-16T07:56:40;15.10;99.90
11848;DHT22;5983;49.966;8.052;2022-10-16T07:59:07;15.20;99.90
11848;DHT22;5983;49.966;8.052;2022-10-16T08:01:34;15.20;99.90
11848;DHT22;5983;49.966;8.052;2022-10-16T08:04:01;15.30;99.90
11848;DHT22;5983;49.966;8.052;2022-10-16T08:06:28;15.40;99.90
11848;DHT22;5983;49.966;8.052;2022-10-16T08:08:55;15.40;99.90
11848;DHT22;5983;49.966;8.052;2022-10-16T08:11:23;15.50;99.90
11848;DHT22;5983;49.966;8.052;2022-10-16T08:13:51;15.50;99.90
11848;DHT22;5983;49.966;8.052;2022-10-16T08:16:18;15.60;99.90
11848;DHT22;5983;49.966;8.052;2022-10-16T08:18:46;15.60;99.90
11848;DHT22;5983;49.966;8.052;2022-10-16T08:21:14;15.70;99.90
11848;DHT22;5983;49.966;8.052;2022-10-16T08:23:43;15.80;99.90
11848;DHT22;5983;49.966;8.052;2022-10-16T08:26:11;15.80;99.90
11848;DHT22;5983;49.966;8.052;2022-10-16T08:28:40;15.90;99.90
11848;DHT22;5983;49.966;8.052;2022-10-16T08:31:08;15.90;99.90
11848;DHT22;5983;49.966;8.052;2022-10-16T08:33:35;15.90;99.90
11848;DHT22;5983;49.966;8.052;2022-10-16T08:36:04;15.90;99.90
11848;DHT22;5983;49.966;8.052;2022-10-16T08:38:32;15.90;99.90
11848;DHT22;5983;49.966;8.052;2022-10-16T08:41:22;15.90;99.90
11848;DHT22;5983;49.966;8.052;2022-10-16T08:44:27;15.90;99.90
11848;DHT22;5983;49.966;8.052;2022-10-16T08:47:11;16.00;99.90
11848;DHT22;5983;49.966;8.052;2022-10-16T08:49:54;15.90;99.90
11848;DHT22;5983;49.966;8.052;2022-10-16T08:52:27;15.80;99.90
11848;DHT22;5983;49.966;8.052;2022-10-16T08:54:57;15.80;99.90
11848;DHT22;5983;49.966;8.052;2022-10-16T08:57:25;15.80;99.90
11848;DHT22;5983;49.966;8.052;2022-10-16T08:59:57;15.70;99.90
11848;DHT22;5983;49.966;8.052;2022-10-16T09:02:35;15.70;99.90
11848;DHT22;5983;49.966;8.052;2022-10-16T09:05:21;15.70;99.90
11848;DHT22;5983;49.966;8.052;2022-10-16T09:08:01;15.70;99.90
11848;DHT22;5983;49.966;8.052;2022-10-16T09:10:42;15.60;99.90
11848;DHT22;5983;49.966;8.052;2022-10-16T09:13:21;15.70;99.90
11848;DHT22;5983;49.966;8.052;2022-10-16T09:16:01;15.80;99.90
11848;DHT22;5983;49.966;8.052;2022-10-16T09:18:45;15.90;99.90
11848;DHT22;5983;49.966;8.052;2022-10-16T09:21:21;15.90;99.90
11848;DHT22;5983;49.966;8.052;2022-10-16T09:23:51;16.00;99.90
11848;DHT22;5983;49.966;8.052;2022-10-16T09:26:19;16.10;99.90
11848;DHT22;5983;49.966;8.052;2022-10-16T09:28:47;16.10;99.90
11848;DHT22;5983;49.966;8.052;2022-10-16T09:31:18;16.20;99.90
11848;DHT22;5983;49.966;8.052;2022-10-16T09:33:50;16.20;99.90
11848;DHT22;5983;49.966;8.052;2022-10-16T09:36:21;16.20;99.90
11848;DHT22;5983;49.966;8.052;2022-10-16T09:38:49;16.30;99.90
11848;DHT22;5983;49.966;8.052;2022-10-16T09:41:20;16.30;99.90
11848;DHT22;5983;49.966;8.052;2022-10-16T09:43:52;16.40;99.90
11848;DHT22;5983;49.966;8.052;2022-10-16T09:46:26;16.60;99.90
11848;DHT22;5983;49.966;8.052;2022-10-16T09:48:57;16.70;99.90
11848;DHT22;5983;49.966;8.052;2022-10-16T09:51:27;16.80;99.90
11848;DHT22;5983;49.966;8.052;2022-10-16T09:53:57;16.90;99.90
11848;DHT22;5983;49.966;8.052;2022-10-16T09:56:27;17.00;99.90
11848;DHT22;5983;49.966;8.052;2022-10-16T09:58:57;17.10;99.90
11848;DHT22;5983;49.966;8.052;2022-10-16T10:01:30;17.10;99.90
11848;DHT22;5983;49.966;8.052;2022-10-16T10:04:02;17.30;99.90
11848;DHT22;5983;49.966;8.052;2022-10-16T10:06:30;17.40;99.90
11848;DHT22;5983;49.966;8.052;2022-10-16T10:09:05;17.70;99.90
11848;DHT22;5983;49.966;8.052;2022-10-16T10:11:48;18.10;99.90
11848;DHT22;5983;49.966;8.052;2022-10-16T10:14:24;18.50;99.90
11848;DHT22;5983;49.966;8.052;2022-10-16T10:17:11;18.90;99.90
11848;DHT22;5983;49.966;8.052;2022-10-16T10:19:44;19.00;99.90
11848;DHT22;5983;49.966;8.052;2022-10-16T10:22:29;18.90;99.90
11848;DHT22;5983;49.966;8.052;2022-10-16T10:25:07;18.90;99.90
11848;DHT22;5983;49.966;8.052;2022-10-16T10:27:50;18.70;99.90
11848;DHT22;5983;49.966;8.052;2022-10-16T10:30:31;18.70;99.90
11848;DHT22;5983;49.966;8.052;2022-10-16T10:33:18;18.70;99.90
11848;DHT22;5983;49.966;8.052;2022-10-16T10:35:58;18.70;99.90
11848;DHT22;5983;49.966;8.052;2022-10-16T10:38:40;18.70;99.90
11848;DHT22;5983;49.966;8.052;2022-10-16T10:41:26;18.60;99.90
11848;DHT22;5983;49.966;8.052;2022-10-16T10:44:13;18.60;99.90
11848;DHT22;5983;49.966;8.052;2022-10-16T10:46:50;18.60;99.90
11848;DHT22;5983;49.966;8.052;2022-10-16T10:49:43;18.70;99.90
11848;DHT22;5983;49.966;8.052;2022-10-16T10:52:32;18.60;99.90
11848;DHT22;5983;49.966;8.052;2022-10-16T10:55:14;18.50;99.90
11848;DHT22;5983;49.966;8.052;2022-10-16T10:58:01;18.50;99.90
11848;DHT22;5983;49.966;8.052;2022-10-16T11:00:57;18.50;99.90
11848;DHT22;5983;49.966;8.052;2022-10-16T11:06:54;18.70;99.90
11848;DHT22;5983;49.966;8.052;2022-10-16T11:09:27;18.70;99.90
11848;DHT22;5983;49.966;8.052;2022-10-16T11:12:01;18.70;99.90
11848;DHT22;5983;49.966;8.052;2022-10-16T11:14:38;18.70;99.90
11848;DHT22;5983;49.966;8.052;2022-10-16T11:17:13;18.90;99.90
11848;DHT22;5983;49.966;8.052;2022-10-16T11:19:47;19.00;99.90
11848;DHT22;5983;49.966;8.052;2022-10-16T11:22:20;19.10;99.90
11848;DHT22;5983;49.966;8.052;2022-10-16T11:24:53;19.10;99.90
11848;DHT22;5983;49.966;8.052;2022-10-16T11:27:34;19.00;99.90
11848;DHT22;5983;49.966;8.052;2022-10-16T11:30:06;19.10;99.90
11848;DHT22;5983;49.966;8.052;2022-10-16T11:32:52;19.10;99.90
11848;DHT22;5983;49.966;8.052;2022-10-16T11:35:36;19.10;99.90
11848;DHT22;5983;49.966;8.052;2022-10-16T11:38:15;19.40;99.90
11848;DHT22;5983;49.966;8.052;2022-10-16T11:40:52;20.60;99.90
11848;DHT22;5983;49.966;8.052;2022-10-16T11:43:26;22.30;99.90
11848;DHT22;5983;49.966;8.052;2022-10-16T11:46:03;22.80;99.90
11848;DHT22;5983;49.966;8.052;2022-10-16T11:48:39;22.70;99.90
11848;DHT22;5983;49.966;8.052;2022-10-16T11:51:16;22.20;99.90
11848;DHT22;5983;49.966;8.052;2022-10-16T11:53:58;21.50;99.90
11848;DHT22;5983;49.966;8.052;2022-10-16T11:56:30;21.00;99.90
11848;DHT22;5983;49.966;8.052;2022-10-16T11:59:02;20.50;99.90
11848;DHT22;5983;49.966;8.052;2022-10-16T12:01:36;20.30;99.90
11848;DHT22;5983;49.966;8.052;2022-10-16T12:04:17;20.10;99.90
11848;DHT22;5983;49.966;8.052;2022-10-16T12:06:53;20.00;99.90
11848;DHT22;5983;49.966;8.052;2022-10-16T12:09:29;20.10;99.90
11848;DHT22;5983;49.966;8.052;2022-10-16T12:11:58;20.20;99.90
11848;DHT22;5983;49.966;8.052;2022-10-16T12:14:43;20.10;99.90
11848;DHT22;5983;49.966;8.052;2022-10-16T12:17:25;20.00;99.90
11848;DHT22;5983;49.966;8.052;2022-10-16T12:19:58;19.90;99.90
11848;DHT22;5983;49.966;8.052;2022-10-16T12:22:29;19.80;99.90
11848;DHT22;5983;49.966;8.052;2022-10-16T12:24:59;19.80;99.90
11848;DHT22;5983;49.966;8.052;2022-10-16T12:27:29;19.80;99.90
11848;DHT22;5983;49.966;8.052;2022-10-16T12:29:58;19.70;99.90
11848;DHT22;5983;49.966;8.052;2022-10-16T12:32:30;19.70;99.90
11848;DHT22;5983;49.966;8.052;2022-10-16T12:35:00;19.90;99.90
11848;DHT22;5983;49.966;8.052;2022-10-16T12:37:31;20.20;99.90
11848;DHT22;5983;49.966;8.052;2022-10-16T12:40:12;20.20;99.90
11848;DHT22;5983;49.966;8.052;2022-10-16T12:42:41;20.10;99.90
11848;DHT22;5983;49.966;8.052;2022-10-16T12:45:26;20.00;99.90
11848;DHT22;5983;49.966;8.052;2022-10-16T12:47:55;19.90;99.90
11848;DHT22;5983;49.966;8.052;2022-10-16T12:50:29;19.90;99.90
11848;DHT22;5983;49.966;8.052;2022-10-16T12:52:58;20.00;99.90
11848;DHT22;5983;49.966;8.052;2022-10-16T12:55:34;20.20;99.90
11848;DHT22;5983;49.966;8.052;2022-10-16T12:58:33;20.30;99.90
11848;DHT22;5983;49.966;8.052;2022-10-16T13:01:29;20.40;99.90
11848;DHT22;5983;49.966;8.052;2022-10-16T13:04:22;20.30;99.90
11848;DHT22;5983;49.966;8.052;2022-10-16T13:07:20;20.10;99.90
11848;DHT22;5983;49.966;8.052;2022-10-16T13:10:06;20.10;99.90
11848;DHT22;5983;49.966;8.052;2022-10-16T13:12:55;20.00;99.90
11848;DHT22;5983;49.966;8.052;2022-10-16T13:15:52;20.00;99.90
11848;DHT22;5983;49.966;8.052;2022-10-16T13:18:32;19.80;99.90
11848;DHT22;5983;49.966;8.052;2022-10-16T13:21:14;19.60;99.90
11848;DHT22;5983;49.966;8.052;2022-10-16T13:24:04;19.50;99.90
11848;DHT22;5983;49.966;8.052;2022-10-16T13:26:42;19.40;99.90
11848;DHT22;5983;49.966;8.052;2022-10-16T13:29:15;19.30;99.90
11848;DHT22;5983;49.966;8.052;2022-10-16T13:31:43;19.10;99.90
11848;DHT22;5983;49.966;8.052;2022-10-16T13:34:14;19.10;99.90
11848;DHT22;5983;49.966;8.052;2022-10-16T13:36:46;19.10;99.90
11848;DHT22;5983;49.966;8.052;2022-10-16T13:39:21;19.10;99.90
11848;DHT22;5983;49.966;8.052;2022-10-16T13:42:04;19.10;99.90
11848;DHT22;5983;49.966;8.052;2022-10-16T13:44:39;19.00;99.90
11848;DHT22;5983;49.966;8.052;2022-10-16T13:47:16;19.00;99.90
11848;DHT22;5983;49.966;8.052;2022-10-16T13:49:44;19.00;99.90
11848;DHT22;5983;49.966;8.052;2022-10-16T13:52:19;19.00;99.90
11848;DHT22;5983;49.966;8.052;2022-10-16T13:54:47;19.00;99.90
11848;DHT22;5983;49.966;8.052;2022-10-16T13:57:15;18.90;99.90
11848;DHT22;5983;49.966;8.052;2022-10-16T13:59:44;18.90;99.90
11848;DHT22;5983;49.966;8.052;2022-10-16T14:02:19;18.90;99.90
11848;DHT22;5983;49.966;8.052;2022-10-16T14:04:51;19.00;99.90
11848;DHT22;5983;49.966;8.052;2022-10-16T14:07:23;19.00;99.90
11848;DHT22;5983;49.966;8.052;2022-10-16T14:09:52;19.10;99.90
11848;DHT22;5983;49.966;8.052;2022-10-16T14:12:22;19.10;99.90
11848;DHT22;5983;49.966;8.052;2022-10-16T14:14:52;19.10;99.90
11848;DHT22;5983;49.966;8.052;2022-10-16T14:17:23;19.20;99.90
11848;DHT22;5983;49.966;8.052;2022-10-16T14:19:54;19.20;99.90
11848;DHT22;5983;49.966;8.052;2022-10-16T14:22:30;19.20;99.90
11848;DHT22;5983;49.966;8.052;2022-10-16T14:24:59;19.20;99.90
11848;DHT22;5983;49.966;8.052;2022-10-16T14:27:31;19.20;99.90
11848;DHT22;5983;49.966;8.052;2022-10-16T14:30:15;19.20;99.90
11848;DHT22;5983;49.966;8.052;2022-10-16T14:32:53;19.10;99.90
11848;DHT22;5983;49.966;8.052;2022-10-16T14:35:24;19.10;99.90
11848;DHT22;5983;49.966;8.052;2022-10-16T14:37:53;19.10;99.90
11848;DHT22;5983;49.966;8.052;2022-10-16T14:40:23;19.00;99.90
11848;DHT22;5983;49.966;8.052;2022-10-16T14:42:53;19.00;99.90
11848;DHT22;5983;49.966;8.052;2022-10-16T14:45:24;19.00;99.90
11848;DHT22;5983;49.966;8.052;2022-10-16T14:47:55;19.00;99.90
11848;DHT22;5983;49.966;8.052;2022-10-16T14:50:24;19.00;99.90
11848;DHT22;5983;49.966;8.052;2022-10-16T14:52:52;18.90;99.90
11848;DHT22;5983;49.966;8.052;2022-10-16T14:55:19;18.90;99.90
11848;DHT22;5983;49.966;8.052;2022-10-16T14:57:46;18.80;99.90
11848;DHT22;5983;49.966;8.052;2022-10-16T15:00:17;18.80;99.90
11848;DHT22;5983;49.966;8.052;2022-10-16T15:02:48;18.80;99.90
11848;DHT22;5983;49.966;8.052;2022-10-16T15:05:18;18.80;99.90
11848;DHT22;5983;49.966;8.052;2022-10-16T15:07:47;18.70;99.90
11848;DHT22;5983;49.966;8.052;2022-10-16T15:10:16;18.80;99.90
11848;DHT22;5983;49.966;8.052;2022-10-16T15:12:44;18.70;99.90
11848;DHT22;5983;49.966;8.052;2022-10-16T15:15:28;18.70;99.90
11848;DHT22;5983;49.966;8.052;2022-10-16T15:18:02;18.70;99.90
11848;DHT22;5983;49.966;8.052;2022-10-16T15:20:31;18.60;99.90
11848;DHT22;5983;49.966;8.052;2022-10-16T15:23:01;18.60;99.90
11848;DHT22;5983;49.966;8.052;2022-10-16T15:25:34;18.60;99.90
11848;DHT22;5983;49.966;8.052;2022-10-16T15:28:03;18.50;99.90
11848;DHT22;5983;49.966;8.052;2022-10-16T15:30:32;18.50;99.90
11848;DHT22;5983;49.966;8.052;2022-10-16T15:32:59;18.50;99.90
11848;DHT22;5983;49.966;8.052;2022-10-16T15:35:28;18.40;99.90
11848;DHT22;5983;49.966;8.052;2022-10-16T15:37:57;18.40;99.90
11848;DHT22;5983;49.966;8.052;2022-10-16T15:40:24;18.40;99.90
11848;DHT22;5983;49.966;8.052;2022-10-16T15:42:51;18.40;99.90
11848;DHT22;5983;49.966;8.052;2022-10-16T15:45:18;18.30;99.90
11848;DHT22;5983;49.966;8.052;2022-10-16T15:47:45;18.30;99.90
11848;DHT22;5983;49.966;8.052;2022-10-16T15:50:15;18.30;99.90
11848;DHT22;5983;49.966;8.052;2022-10-16T15:52:43;18.30;99.90
11848;DHT22;5983;49.966;8.052;2022-10-16T15:55:11;18.30;99.90
11848;DHT22;5983;49.966;8.052;2022-10-16T15:57:40;18.20;99.90
11848;DHT22;5983;49.966;8.052;2022-10-16T16:00:10;18.30;99.90
11848;DHT22;5983;49.966;8.052;2022-10-16T16:02:39;18.20;99.90
11848;DHT22;5983;49.966;8.052;2022-10-16T16:05:08;18.20;99.90
11848;DHT22;5983;49.966;8.052;2022-10-16T16:07:38;18.20;99.90
11848;DHT22;5983;49.966;8.052;2022-10-16T16:10:07;18.10;99.90
11848;DHT22;5983;49.966;8.052;2022-10-16T16:12:36;18.10;99.90
11848;DHT22;5983;49.966;8.052;2022-10-16T16:15:04;18.00;99.90
11848;DHT22;5983;49.966;8.052;2022-10-16T16:17:33;18.00;99.90